ADR315 GMMN-LJLJ
Flight info
| Callsign | ADR315 |
|---|---|
| Flight time | 2h 56m |
| Altitude | 36000 |
| Route | ESALA DCT AGDAL UG5 ROMSO UM985 BARPA M985 PIMOS M445 RIXUR/N0444F380 M445 SOPET M985 BCN N870 DIBER UN870 SOSUR DCT NOSTA DCT IVLOX/N0444F390 DCT BARPI |
| Aircraft | A320/M-SDE3FGHIRWY/LB1 |
Departure
| Time | 2026-04-29 09:19 |
|---|---|
| Airport | Mohammed V International Airport (GMMN) |
Arrival
| Time | 2026-04-29 12:16 |
|---|---|
| Airport | Ljubljana Jože Pučnik Airport (LJLJ) |
| Time | Latitude | Longitude | Altitude | Speed | Heading |
|---|---|---|---|---|---|
| 2026-04-29 08:39 | 33.37534 | -7.58310 | 655 ft | 0 kts | 67° |
| 2026-04-29 09:09 | 33.37530 | -7.58322 | 655 ft | 3 kts | 65° |
| 2026-04-29 09:09 | 33.37521 | -7.58344 | 654 ft | 3 kts | 63° |
| 2026-04-29 09:09 | 33.37512 | -7.58365 | 655 ft | 3 kts | 69° |
| 2026-04-29 09:10 | 33.37506 | -7.58388 | 655 ft | 3 kts | 76° |
| 2026-04-29 09:10 | 33.37503 | -7.58412 | 656 ft | 3 kts | 85° |
| 2026-04-29 09:10 | 33.37502 | -7.58427 | 657 ft | 1 kts | 86° |
| 2026-04-29 09:10 | 33.37502 | -7.58429 | 657 ft | 0 kts | 86° |
| 2026-04-29 09:12 | 33.37502 | -7.58427 | 657 ft | 1 kts | 86° |
| 2026-04-29 09:13 | 33.37501 | -7.58412 | 656 ft | 2 kts | 102° |
| 2026-04-29 09:13 | 33.37483 | -7.58398 | 654 ft | 4 kts | 156° |
| 2026-04-29 09:13 | 33.37448 | -7.58385 | 654 ft | 9 kts | 163° |
| 2026-04-29 09:13 | 33.37375 | -7.58360 | 653 ft | 12 kts | 164° |
| 2026-04-29 09:14 | 33.37289 | -7.58331 | 653 ft | 14 kts | 164° |
| 2026-04-29 09:14 | 33.37197 | -7.58302 | 653 ft | 14 kts | 165° |
| 2026-04-29 09:14 | 33.37095 | -7.58270 | 653 ft | 16 kts | 162° |
| 2026-04-29 09:14 | 33.36983 | -7.58231 | 653 ft | 15 kts | 167° |
| 2026-04-29 09:15 | 33.36934 | -7.58279 | 653 ft | 11 kts | 257° |
| 2026-04-29 09:15 | 33.36912 | -7.58376 | 653 ft | 13 kts | 255° |
| 2026-04-29 09:15 | 33.36880 | -7.58468 | 653 ft | 9 kts | 209° |
| 2026-04-29 09:15 | 33.36812 | -7.58450 | 654 ft | 11 kts | 163° |
| 2026-04-29 09:16 | 33.36705 | -7.58413 | 653 ft | 26 kts | 165° |
| 2026-04-29 09:16 | 33.36491 | -7.58342 | 655 ft | 34 kts | 164° |
| 2026-04-29 09:16 | 33.36261 | -7.58263 | 652 ft | 35 kts | 163° |
| 2026-04-29 09:16 | 33.36023 | -7.58180 | 654 ft | 36 kts | 164° |
| 2026-04-29 09:17 | 33.35777 | -7.58097 | 652 ft | 37 kts | 165° |
| 2026-04-29 09:17 | 33.35525 | -7.58011 | 652 ft | 38 kts | 164° |
| 2026-04-29 09:17 | 33.35347 | -7.57950 | 654 ft | 15 kts | 166° |
| 2026-04-29 09:17 | 33.35256 | -7.57991 | 653 ft | 16 kts | 248° |
| 2026-04-29 09:18 | 33.35228 | -7.58111 | 653 ft | 15 kts | 254° |
| 2026-04-29 09:18 | 33.35202 | -7.58226 | 654 ft | 12 kts | 255° |
| 2026-04-29 09:18 | 33.35258 | -7.58278 | 654 ft | 13 kts | 345° |
| 2026-04-29 09:18 | 33.35412 | -7.58326 | 650 ft | 47 kts | 345° |
| 2026-04-29 09:19 | 33.35944 | -7.58515 | 646 ft | 109 kts | 344° |
| 2026-04-29 09:19 | 33.36836 | -7.58816 | 652 ft | 155 kts | 343° |
| 2026-04-29 09:19 | 33.37948 | -7.59186 | 990 ft | 169 kts | 344° |
| 2026-04-29 09:19 | 33.39085 | -7.59552 | 1614 ft | 170 kts | 343° |
| 2026-04-29 09:20 | 33.40230 | -7.59909 | 2273 ft | 170 kts | 347° |
| 2026-04-29 09:20 | 33.41412 | -7.60046 | 2861 ft | 172 kts | 358° |
| 2026-04-29 09:20 | 33.42607 | -7.59887 | 3392 ft | 174 kts | 11° |
| 2026-04-29 09:20 | 33.43761 | -7.59433 | 3882 ft | 178 kts | 24° |
| 2026-04-29 09:21 | 33.44880 | -7.58645 | 4147 ft | 198 kts | 37° |
| 2026-04-29 09:21 | 33.45923 | -7.57436 | 4334 ft | 222 kts | 52° |
| 2026-04-29 09:21 | 33.46953 | -7.55920 | 4636 ft | 247 kts | 52° |
| 2026-04-29 09:21 | 33.48074 | -7.54288 | 5262 ft | 259 kts | 52° |
| 2026-04-29 09:22 | 33.49230 | -7.52603 | 6051 ft | 263 kts | 52° |
| 2026-04-29 09:22 | 33.50402 | -7.50894 | 6859 ft | 267 kts | 52° |
| 2026-04-29 09:22 | 33.51583 | -7.49168 | 7679 ft | 269 kts | 52° |
| 2026-04-29 09:22 | 33.52779 | -7.47420 | 8488 ft | 272 kts | 51° |
| 2026-04-29 09:23 | 33.53989 | -7.45657 | 9310 ft | 275 kts | 51° |
| 2026-04-29 09:23 | 33.55233 | -7.43905 | 10071 ft | 278 kts | 44° |
| 2026-04-29 09:23 | 33.56782 | -7.42495 | 10777 ft | 281 kts | 27° |
| 2026-04-29 09:23 | 33.58646 | -7.41614 | 11138 ft | 300 kts | 11° |
| 2026-04-29 09:24 | 33.60789 | -7.41202 | 11341 ft | 323 kts | 7° |
| 2026-04-29 09:24 | 33.63097 | -7.40789 | 11503 ft | 347 kts | 7° |
| 2026-04-29 09:24 | 33.65525 | -7.40339 | 11959 ft | 359 kts | 7° |
| 2026-04-29 09:24 | 33.67974 | -7.39872 | 12619 ft | 363 kts | 7° |
| 2026-04-29 09:25 | 33.70505 | -7.39384 | 13341 ft | 366 kts | 8° |
| 2026-04-29 09:25 | 33.72995 | -7.38900 | 14001 ft | 368 kts | 8° |
| 2026-04-29 09:25 | 33.75538 | -7.38403 | 14612 ft | 371 kts | 7° |
| 2026-04-29 09:25 | 33.78093 | -7.37905 | 15191 ft | 374 kts | 7° |
| 2026-04-29 09:26 | 33.80679 | -7.37397 | 15766 ft | 378 kts | 8° |
| 2026-04-29 09:26 | 33.83231 | -7.36543 | 16344 ft | 384 kts | 19° |
| 2026-04-29 09:26 | 33.85633 | -7.35101 | 16915 ft | 391 kts | 30° |
| 2026-04-29 09:26 | 33.87827 | -7.33126 | 17484 ft | 396 kts | 37° |
| 2026-04-29 09:27 | 33.89973 | -7.31033 | 18059 ft | 400 kts | 37° |
| 2026-04-29 09:27 | 33.92148 | -7.28910 | 18578 ft | 404 kts | 36° |
| 2026-04-29 09:27 | 33.94344 | -7.26767 | 19103 ft | 408 kts | 36° |
| 2026-04-29 09:27 | 33.96552 | -7.24607 | 19615 ft | 412 kts | 36° |
| 2026-04-29 09:28 | 33.98787 | -7.22418 | 20142 ft | 416 kts | 36° |
| 2026-04-29 09:28 | 34.01045 | -7.20212 | 20678 ft | 419 kts | 35° |
| 2026-04-29 09:28 | 34.03456 | -7.18260 | 21188 ft | 419 kts | 25° |
| 2026-04-29 09:28 | 34.06112 | -7.16821 | 21677 ft | 418 kts | 15° |
| 2026-04-29 09:29 | 34.08912 | -7.15922 | 22144 ft | 418 kts | 9° |
| 2026-04-29 09:29 | 34.14625 | -7.14337 | 23066 ft | 425 kts | 9° |
| 2026-04-29 09:29 | 34.17517 | -7.13522 | 23522 ft | 428 kts | 9° |
| 2026-04-29 09:30 | 34.20430 | -7.12699 | 23894 ft | 431 kts | 9° |
| 2026-04-29 09:30 | 34.23353 | -7.11874 | 24270 ft | 433 kts | 9° |
| 2026-04-29 09:30 | 34.26301 | -7.11041 | 24645 ft | 436 kts | 9° |
| 2026-04-29 09:30 | 34.29265 | -7.10204 | 25046 ft | 438 kts | 8° |
| 2026-04-29 09:31 | 34.32231 | -7.09368 | 25408 ft | 440 kts | 8° |
| 2026-04-29 09:31 | 34.35223 | -7.08529 | 25759 ft | 442 kts | 8° |
| 2026-04-29 09:31 | 34.38221 | -7.07685 | 26105 ft | 444 kts | 8° |
| 2026-04-29 09:31 | 34.41244 | -7.06829 | 26446 ft | 447 kts | 8° |
| 2026-04-29 09:32 | 34.44283 | -7.05963 | 26792 ft | 449 kts | 8° |
| 2026-04-29 09:32 | 34.47329 | -7.05097 | 27133 ft | 452 kts | 8° |
| 2026-04-29 09:32 | 34.50402 | -7.04227 | 27472 ft | 454 kts | 8° |
| 2026-04-29 09:32 | 34.53492 | -7.03356 | 27823 ft | 457 kts | 8° |
| 2026-04-29 09:33 | 34.56589 | -7.02487 | 28155 ft | 459 kts | 8° |
| 2026-04-29 09:33 | 34.59694 | -7.01475 | 28477 ft | 465 kts | 14° |
| 2026-04-29 09:33 | 34.62689 | -6.99922 | 28797 ft | 473 kts | 22° |
| 2026-04-29 09:33 | 34.65598 | -6.98135 | 29104 ft | 475 kts | 22° |
| 2026-04-29 09:34 | 34.68547 | -6.96320 | 29558 ft | 474 kts | 22° |
| 2026-04-29 09:34 | 34.71482 | -6.94511 | 30006 ft | 474 kts | 22° |
| 2026-04-29 09:34 | 34.74424 | -6.92700 | 30398 ft | 473 kts | 22° |
| 2026-04-29 09:34 | 34.77364 | -6.90893 | 30787 ft | 472 kts | 22° |
| 2026-04-29 09:35 | 34.80289 | -6.89096 | 31191 ft | 472 kts | 21° |
| 2026-04-29 09:35 | 34.83224 | -6.87294 | 31553 ft | 472 kts | 21° |
| 2026-04-29 09:35 | 34.86147 | -6.85496 | 31958 ft | 471 kts | 21° |
| 2026-04-29 09:35 | 34.89076 | -6.83694 | 32355 ft | 471 kts | 21° |
| 2026-04-29 09:36 | 34.91997 | -6.81896 | 32786 ft | 469 kts | 21° |
| 2026-04-29 09:36 | 34.94939 | -6.80082 | 33210 ft | 468 kts | 21° |
| 2026-04-29 09:36 | 34.97806 | -6.78307 | 33614 ft | 467 kts | 21° |
| 2026-04-29 09:36 | 35.00745 | -6.76484 | 34008 ft | 467 kts | 21° |
| 2026-04-29 09:37 | 35.03633 | -6.74694 | 34351 ft | 466 kts | 21° |
| 2026-04-29 09:37 | 35.06491 | -6.72925 | 34678 ft | 466 kts | 20° |
| 2026-04-29 09:37 | 35.09380 | -6.71135 | 34967 ft | 467 kts | 21° |
| 2026-04-29 09:37 | 35.12280 | -6.69340 | 35250 ft | 467 kts | 21° |
| 2026-04-29 09:38 | 35.15219 | -6.67518 | 35526 ft | 467 kts | 21° |
| 2026-04-29 09:38 | 35.18072 | -6.65748 | 35795 ft | 467 kts | 21° |
| 2026-04-29 09:38 | 35.20977 | -6.63941 | 35939 ft | 469 kts | 21° |
| 2026-04-29 09:38 | 35.23898 | -6.62126 | 35961 ft | 474 kts | 21° |
| 2026-04-29 09:39 | 35.29809 | -6.58445 | 35953 ft | 477 kts | 21° |
| 2026-04-29 09:39 | 35.35721 | -6.54750 | 35949 ft | 477 kts | 21° |
| 2026-04-29 09:40 | 35.41559 | -6.50848 | 35956 ft | 483 kts | 30° |
| 2026-04-29 09:40 | 35.46479 | -6.45131 | 35959 ft | 495 kts | 49° |
| 2026-04-29 09:41 | 35.50230 | -6.37992 | 35959 ft | 498 kts | 55° |
| 2026-04-29 09:41 | 35.53889 | -6.30774 | 35964 ft | 498 kts | 55° |
| 2026-04-29 09:42 | 35.57544 | -6.23542 | 35960 ft | 499 kts | 55° |
| 2026-04-29 09:42 | 35.61200 | -6.16284 | 35993 ft | 499 kts | 55° |
| 2026-04-29 09:43 | 35.64228 | -6.10260 | 35978 ft | 499 kts | 55° |
| 2026-04-29 09:43 | 35.67872 | -6.02985 | 35975 ft | 499 kts | 55° |
| 2026-04-29 09:44 | 35.71506 | -5.95724 | 35968 ft | 498 kts | 55° |
| 2026-04-29 09:44 | 35.74872 | -5.88265 | 35968 ft | 500 kts | 62° |
| 2026-04-29 09:45 | 35.77901 | -5.80561 | 35973 ft | 500 kts | 62° |
| 2026-04-29 09:45 | 35.80903 | -5.72836 | 35965 ft | 500 kts | 62° |
| 2026-04-29 09:46 | 35.83918 | -5.65103 | 35967 ft | 500 kts | 61° |
| 2026-04-29 09:46 | 35.87007 | -5.57439 | 35965 ft | 499 kts | 60° |
| 2026-04-29 09:47 | 35.90149 | -5.49794 | 35964 ft | 499 kts | 60° |
| 2026-04-29 09:47 | 35.93258 | -5.42142 | 35966 ft | 499 kts | 61° |
| 2026-04-29 09:48 | 35.96337 | -5.34468 | 35966 ft | 499 kts | 61° |
| 2026-04-29 09:48 | 35.99411 | -5.26792 | 35973 ft | 499 kts | 61° |
| 2026-04-29 09:49 | 36.02500 | -5.19181 | 35975 ft | 498 kts | 60° |
| 2026-04-29 09:49 | 36.05718 | -5.11551 | 35975 ft | 497 kts | 59° |
| 2026-04-29 09:50 | 36.08911 | -5.04036 | 35975 ft | 497 kts | 59° |
| 2026-04-29 09:50 | 36.12091 | -4.96444 | 35976 ft | 497 kts | 60° |
| 2026-04-29 09:51 | 36.15557 | -4.89009 | 35994 ft | 492 kts | 49° |
| 2026-04-29 09:51 | 36.20089 | -4.82843 | 35978 ft | 487 kts | 41° |
| 2026-04-29 09:52 | 36.24776 | -4.76800 | 35975 ft | 487 kts | 42° |
| 2026-04-29 09:52 | 36.29456 | -4.70744 | 35969 ft | 486 kts | 42° |
| 2026-04-29 09:53 | 36.34135 | -4.64668 | 35967 ft | 486 kts | 42° |
| 2026-04-29 09:53 | 36.38811 | -4.58604 | 35967 ft | 486 kts | 42° |
| 2026-04-29 09:54 | 36.43488 | -4.52543 | 35991 ft | 486 kts | 42° |
| 2026-04-29 09:54 | 36.48151 | -4.46479 | 35978 ft | 485 kts | 42° |
| 2026-04-29 09:55 | 36.52798 | -4.40406 | 35971 ft | 485 kts | 42° |
| 2026-04-29 09:55 | 36.57448 | -4.34322 | 35971 ft | 484 kts | 42° |
| 2026-04-29 09:56 | 36.62089 | -4.28246 | 35970 ft | 484 kts | 42° |
| 2026-04-29 09:56 | 36.66724 | -4.22163 | 35969 ft | 484 kts | 42° |
| 2026-04-29 09:57 | 36.71358 | -4.16073 | 35974 ft | 484 kts | 42° |
| 2026-04-29 09:57 | 36.75994 | -4.09964 | 35973 ft | 484 kts | 42° |
| 2026-04-29 09:58 | 36.80620 | -4.03859 | 35970 ft | 484 kts | 42° |
| 2026-04-29 09:58 | 36.85238 | -3.97744 | 35968 ft | 484 kts | 42° |
| 2026-04-29 09:59 | 36.89862 | -3.91632 | 35962 ft | 484 kts | 42° |
| 2026-04-29 09:59 | 36.94487 | -3.85504 | 35979 ft | 484 kts | 43° |
| 2026-04-29 10:00 | 36.99098 | -3.79370 | 35971 ft | 484 kts | 43° |
| 2026-04-29 10:00 | 37.03701 | -3.73238 | 35996 ft | 483 kts | 43° |
| 2026-04-29 10:01 | 37.08296 | -3.67105 | 36003 ft | 483 kts | 43° |
| 2026-04-29 10:01 | 37.12893 | -3.60978 | 35998 ft | 482 kts | 42° |
| 2026-04-29 10:02 | 37.17565 | -3.54935 | 35999 ft | 482 kts | 41° |
| 2026-04-29 10:02 | 37.22261 | -3.48945 | 35997 ft | 482 kts | 41° |
| 2026-04-29 10:03 | 37.26931 | -3.42925 | 35969 ft | 481 kts | 42° |
| 2026-04-29 10:03 | 37.31587 | -3.36877 | 35964 ft | 481 kts | 42° |
| 2026-04-29 10:04 | 37.36225 | -3.30838 | 35964 ft | 480 kts | 42° |
| 2026-04-29 10:04 | 37.40859 | -3.24800 | 35956 ft | 480 kts | 42° |
| 2026-04-29 10:05 | 37.45487 | -3.18752 | 35965 ft | 480 kts | 42° |
| 2026-04-29 10:05 | 37.50115 | -3.12698 | 35953 ft | 480 kts | 42° |
| 2026-04-29 10:06 | 37.54723 | -3.06670 | 35952 ft | 480 kts | 42° |
| 2026-04-29 10:06 | 37.59350 | -3.00607 | 35956 ft | 480 kts | 42° |
| 2026-04-29 10:07 | 37.63964 | -2.94537 | 35954 ft | 479 kts | 42° |
| 2026-04-29 10:07 | 37.68576 | -2.88471 | 35983 ft | 479 kts | 42° |
| 2026-04-29 10:08 | 37.73192 | -2.82384 | 35971 ft | 479 kts | 42° |
| 2026-04-29 10:08 | 37.77795 | -2.76294 | 35960 ft | 479 kts | 43° |
| 2026-04-29 10:09 | 37.82395 | -2.70192 | 35973 ft | 479 kts | 43° |
| 2026-04-29 10:09 | 37.86991 | -2.64091 | 35975 ft | 479 kts | 43° |
| 2026-04-29 10:10 | 37.91580 | -2.57984 | 35981 ft | 478 kts | 43° |
| 2026-04-29 10:10 | 37.96169 | -2.51873 | 35979 ft | 478 kts | 43° |
| 2026-04-29 10:11 | 38.00745 | -2.45771 | 35980 ft | 478 kts | 43° |
| 2026-04-29 10:11 | 38.05316 | -2.39659 | 35978 ft | 478 kts | 43° |
| 2026-04-29 10:12 | 38.09883 | -2.33543 | 35976 ft | 477 kts | 43° |
| 2026-04-29 10:12 | 38.14453 | -2.27411 | 35972 ft | 477 kts | 44° |
| 2026-04-29 10:13 | 38.19000 | -2.21292 | 35993 ft | 476 kts | 44° |
| 2026-04-29 10:13 | 38.23275 | -2.14883 | 35985 ft | 476 kts | 50° |
| 2026-04-29 10:14 | 38.27365 | -2.08277 | 35980 ft | 475 kts | 50° |
| 2026-04-29 10:14 | 38.31455 | -2.01664 | 35984 ft | 474 kts | 50° |
| 2026-04-29 10:15 | 38.35532 | -1.95063 | 35974 ft | 474 kts | 50° |
| 2026-04-29 10:15 | 38.39601 | -1.88454 | 35972 ft | 474 kts | 51° |
| 2026-04-29 10:16 | 38.42982 | -1.82956 | 35981 ft | 473 kts | 51° |
| 2026-04-29 10:16 | 38.47723 | -1.75222 | 35980 ft | 473 kts | 51° |
| 2026-04-29 10:17 | 38.51747 | -1.68656 | 35973 ft | 473 kts | 51° |
| 2026-04-29 10:17 | 38.55791 | -1.62038 | 35981 ft | 473 kts | 51° |
| 2026-04-29 10:18 | 38.59825 | -1.55410 | 35969 ft | 473 kts | 51° |
| 2026-04-29 10:18 | 38.63859 | -1.48780 | 35971 ft | 473 kts | 52° |
| 2026-04-29 10:19 | 38.67899 | -1.42139 | 35973 ft | 473 kts | 52° |
| 2026-04-29 10:19 | 38.71925 | -1.35492 | 35984 ft | 473 kts | 52° |
| 2026-04-29 10:20 | 38.75945 | -1.28819 | 35977 ft | 473 kts | 52° |
| 2026-04-29 10:20 | 38.79968 | -1.22162 | 35970 ft | 472 kts | 52° |
| 2026-04-29 10:21 | 38.83991 | -1.15503 | 35973 ft | 472 kts | 52° |
| 2026-04-29 10:21 | 38.88001 | -1.08839 | 35985 ft | 471 kts | 53° |
| 2026-04-29 10:22 | 38.91999 | -1.02170 | 35996 ft | 470 kts | 53° |
| 2026-04-29 10:22 | 38.95980 | -0.95525 | 35991 ft | 469 kts | 53° |
| 2026-04-29 10:23 | 38.99949 | -0.88885 | 35985 ft | 468 kts | 53° |
| 2026-04-29 10:23 | 39.03910 | -0.82244 | 35987 ft | 468 kts | 53° |
| 2026-04-29 10:24 | 39.08154 | -0.75903 | 35981 ft | 468 kts | 41° |
| 2026-04-29 10:24 | 39.13122 | -0.70603 | 35992 ft | 467 kts | 39° |
| 2026-04-29 10:25 | 39.18129 | -0.65274 | 35996 ft | 467 kts | 40° |
| 2026-04-29 10:25 | 39.23134 | -0.59917 | 35979 ft | 467 kts | 40° |
| 2026-04-29 10:26 | 39.28127 | -0.54563 | 35983 ft | 467 kts | 39° |
| 2026-04-29 10:26 | 39.33238 | -0.49393 | 35986 ft | 467 kts | 37° |
| 2026-04-29 10:27 | 39.41100 | -0.41945 | 36000 ft | 467 kts | 36° |
| 2026-04-29 10:28 | 39.46319 | -0.36912 | 35987 ft | 467 kts | 37° |
| 2026-04-29 10:28 | 39.51501 | -0.31830 | 35997 ft | 468 kts | 37° |
| 2026-04-29 10:29 | 39.56681 | -0.26736 | 35985 ft | 468 kts | 37° |
| 2026-04-29 10:29 | 39.61844 | -0.21676 | 35993 ft | 468 kts | 37° |
| 2026-04-29 10:30 | 39.67040 | -0.16595 | 35987 ft | 468 kts | 37° |
| 2026-04-29 10:30 | 39.72226 | -0.11489 | 35988 ft | 468 kts | 38° |
| 2026-04-29 10:31 | 39.77409 | -0.06371 | 35987 ft | 468 kts | 38° |
| 2026-04-29 10:31 | 39.81758 | -0.02083 | 36028 ft | 468 kts | 38° |
| 2026-04-29 10:31 | 39.84204 | 0.00674 | 36508 ft | 462 kts | 46° |
| 2026-04-29 10:32 | 39.86406 | 0.03704 | 36914 ft | 459 kts | 47° |
| 2026-04-29 10:32 | 39.88580 | 0.06732 | 37228 ft | 458 kts | 47° |
| 2026-04-29 10:32 | 39.90727 | 0.09729 | 37508 ft | 458 kts | 47° |
| 2026-04-29 10:32 | 39.92925 | 0.12797 | 37777 ft | 458 kts | 47° |
| 2026-04-29 10:33 | 39.95073 | 0.15791 | 38031 ft | 458 kts | 47° |
| 2026-04-29 10:33 | 39.97280 | 0.18867 | 38261 ft | 458 kts | 47° |
| 2026-04-29 10:33 | 39.99421 | 0.21855 | 38517 ft | 458 kts | 47° |
| 2026-04-29 10:33 | 40.01599 | 0.24894 | 38723 ft | 458 kts | 47° |
| 2026-04-29 10:34 | 40.03777 | 0.27933 | 38898 ft | 458 kts | 47° |
| 2026-04-29 10:34 | 40.08135 | 0.34016 | 38977 ft | 459 kts | 47° |
| 2026-04-29 10:35 | 40.12488 | 0.40106 | 38987 ft | 458 kts | 47° |
| 2026-04-29 10:35 | 40.16826 | 0.46191 | 38974 ft | 456 kts | 47° |
| 2026-04-29 10:36 | 40.21150 | 0.52267 | 38974 ft | 456 kts | 47° |
| 2026-04-29 10:36 | 40.25468 | 0.58359 | 38981 ft | 457 kts | 48° |
| 2026-04-29 10:37 | 40.29786 | 0.64463 | 38992 ft | 457 kts | 48° |
| 2026-04-29 10:37 | 40.34107 | 0.70587 | 38993 ft | 457 kts | 48° |
| 2026-04-29 10:38 | 40.38420 | 0.76705 | 38991 ft | 457 kts | 48° |
| 2026-04-29 10:38 | 40.42727 | 0.82818 | 39003 ft | 456 kts | 48° |
| 2026-04-29 10:39 | 40.47015 | 0.88923 | 39004 ft | 454 kts | 48° |
| 2026-04-29 10:39 | 40.51294 | 0.95040 | 39008 ft | 453 kts | 48° |
| 2026-04-29 10:40 | 40.55554 | 1.01138 | 39006 ft | 453 kts | 49° |
| 2026-04-29 10:40 | 40.59806 | 1.07243 | 39009 ft | 452 kts | 49° |
| 2026-04-29 10:41 | 40.64048 | 1.13356 | 39009 ft | 452 kts | 48° |
| 2026-04-29 10:41 | 40.68297 | 1.19478 | 39008 ft | 452 kts | 48° |
| 2026-04-29 10:42 | 40.72506 | 1.25553 | 39007 ft | 452 kts | 48° |
| 2026-04-29 10:42 | 40.76744 | 1.31664 | 39013 ft | 452 kts | 48° |
| 2026-04-29 10:43 | 40.80970 | 1.37789 | 39011 ft | 451 kts | 49° |
| 2026-04-29 10:43 | 40.85196 | 1.43917 | 39009 ft | 452 kts | 49° |
| 2026-04-29 10:44 | 40.89432 | 1.50058 | 38976 ft | 452 kts | 48° |
| 2026-04-29 10:44 | 40.91561 | 1.53105 | 38633 ft | 450 kts | 48° |
| 2026-04-29 10:44 | 40.93676 | 1.56144 | 38211 ft | 447 kts | 47° |
| 2026-04-29 10:44 | 40.95758 | 1.59145 | 38100 ft | 437 kts | 48° |
| 2026-04-29 10:45 | 40.97793 | 1.62075 | 38382 ft | 429 kts | 48° |
| 2026-04-29 10:45 | 40.99809 | 1.64990 | 38665 ft | 429 kts | 48° |
| 2026-04-29 10:45 | 41.01812 | 1.67897 | 38881 ft | 428 kts | 48° |
| 2026-04-29 10:46 | 41.05855 | 1.73782 | 38997 ft | 436 kts | 48° |
| 2026-04-29 10:46 | 41.09977 | 1.79781 | 38996 ft | 444 kts | 48° |
| 2026-04-29 10:47 | 41.14137 | 1.85842 | 38995 ft | 445 kts | 48° |
| 2026-04-29 10:47 | 41.18312 | 1.91923 | 38994 ft | 445 kts | 47° |
| 2026-04-29 10:48 | 41.22454 | 1.98024 | 39005 ft | 445 kts | 48° |
| 2026-04-29 10:48 | 41.26584 | 2.04120 | 38992 ft | 444 kts | 48° |
| 2026-04-29 10:49 | 41.30695 | 2.10196 | 39006 ft | 445 kts | 48° |
| 2026-04-29 10:49 | 41.34840 | 2.16313 | 39010 ft | 445 kts | 48° |
| 2026-04-29 10:50 | 41.38997 | 2.22429 | 39014 ft | 446 kts | 48° |
| 2026-04-29 10:50 | 41.43155 | 2.28555 | 39015 ft | 446 kts | 48° |
| 2026-04-29 10:51 | 41.47295 | 2.34711 | 39009 ft | 446 kts | 48° |
| 2026-04-29 10:51 | 41.51433 | 2.40897 | 39013 ft | 446 kts | 48° |
| 2026-04-29 10:52 | 41.55570 | 2.47076 | 39013 ft | 447 kts | 48° |
| 2026-04-29 10:52 | 41.59724 | 2.53254 | 39001 ft | 447 kts | 48° |
| 2026-04-29 10:53 | 41.63878 | 2.59437 | 39012 ft | 447 kts | 48° |
| 2026-04-29 10:53 | 41.68036 | 2.65622 | 39026 ft | 447 kts | 48° |
| 2026-04-29 10:54 | 41.72182 | 2.71832 | 39025 ft | 448 kts | 48° |
| 2026-04-29 10:54 | 41.76322 | 2.78068 | 39019 ft | 448 kts | 48° |
| 2026-04-29 10:55 | 41.80468 | 2.84314 | 39018 ft | 448 kts | 48° |
| 2026-04-29 10:55 | 41.84607 | 2.90557 | 39023 ft | 448 kts | 48° |
| 2026-04-29 10:56 | 41.88746 | 2.96806 | 39020 ft | 448 kts | 48° |
| 2026-04-29 10:56 | 41.92888 | 3.03066 | 39020 ft | 448 kts | 48° |
| 2026-04-29 10:57 | 41.97022 | 3.09327 | 39033 ft | 448 kts | 48° |
| 2026-04-29 10:57 | 42.01148 | 3.15594 | 39039 ft | 448 kts | 48° |
| 2026-04-29 10:58 | 42.05277 | 3.21874 | 39039 ft | 447 kts | 48° |
| 2026-04-29 10:58 | 42.09253 | 3.28228 | 39032 ft | 447 kts | 59° |
| 2026-04-29 10:59 | 42.11691 | 3.35892 | 39034 ft | 446 kts | 70° |
| 2026-04-29 10:59 | 42.13873 | 3.43721 | 39031 ft | 447 kts | 70° |
| 2026-04-29 11:00 | 42.16048 | 3.51570 | 39035 ft | 448 kts | 70° |
| 2026-04-29 11:00 | 42.18229 | 3.59437 | 39038 ft | 448 kts | 70° |
| 2026-04-29 11:01 | 42.20402 | 3.67301 | 39041 ft | 448 kts | 70° |
| 2026-04-29 11:01 | 42.22578 | 3.75192 | 39044 ft | 448 kts | 70° |
| 2026-04-29 11:02 | 42.24748 | 3.83076 | 39034 ft | 449 kts | 70° |
| 2026-04-29 11:02 | 42.26912 | 3.90974 | 39033 ft | 449 kts | 70° |
| 2026-04-29 11:03 | 42.29072 | 3.98902 | 39032 ft | 450 kts | 70° |
| 2026-04-29 11:03 | 42.31228 | 4.06828 | 39036 ft | 450 kts | 70° |
| 2026-04-29 11:04 | 42.33379 | 4.14764 | 39035 ft | 450 kts | 70° |
| 2026-04-29 11:04 | 42.35526 | 4.22715 | 39025 ft | 451 kts | 70° |
| 2026-04-29 11:05 | 42.37682 | 4.30688 | 39020 ft | 452 kts | 70° |
| 2026-04-29 11:05 | 42.39844 | 4.38696 | 39023 ft | 453 kts | 70° |
| 2026-04-29 11:06 | 42.41995 | 4.46711 | 39027 ft | 454 kts | 70° |
| 2026-04-29 11:06 | 42.44141 | 4.54741 | 39036 ft | 454 kts | 70° |
| 2026-04-29 11:07 | 42.46287 | 4.62796 | 39031 ft | 454 kts | 70° |
| 2026-04-29 11:07 | 42.48421 | 4.70859 | 39032 ft | 455 kts | 70° |
| 2026-04-29 11:08 | 42.50555 | 4.78937 | 39030 ft | 456 kts | 70° |
| 2026-04-29 11:08 | 42.52691 | 4.87026 | 39035 ft | 456 kts | 70° |
| 2026-04-29 11:09 | 42.54819 | 4.95148 | 39031 ft | 457 kts | 71° |
| 2026-04-29 11:09 | 42.57519 | 5.02915 | 39023 ft | 457 kts | 56° |
| 2026-04-29 11:10 | 42.60992 | 5.10134 | 39029 ft | 457 kts | 57° |
| 2026-04-29 11:10 | 42.64444 | 5.17408 | 39030 ft | 458 kts | 57° |
| 2026-04-29 11:11 | 42.67889 | 5.24684 | 39033 ft | 458 kts | 57° |
| 2026-04-29 11:11 | 42.71343 | 5.31960 | 39036 ft | 458 kts | 57° |
| 2026-04-29 11:12 | 42.74774 | 5.39211 | 39038 ft | 458 kts | 57° |
| 2026-04-29 11:12 | 42.78216 | 5.46514 | 39038 ft | 459 kts | 57° |
| 2026-04-29 11:13 | 42.81651 | 5.53831 | 39039 ft | 459 kts | 57° |
| 2026-04-29 11:13 | 42.85089 | 5.61175 | 39040 ft | 459 kts | 57° |
| 2026-04-29 11:14 | 42.88527 | 5.68503 | 39047 ft | 459 kts | 57° |
| 2026-04-29 11:14 | 42.91957 | 5.75844 | 39044 ft | 459 kts | 57° |
| 2026-04-29 11:15 | 42.95376 | 5.83200 | 39045 ft | 459 kts | 57° |
| 2026-04-29 11:15 | 42.98791 | 5.90566 | 39047 ft | 459 kts | 57° |
| 2026-04-29 11:16 | 43.02212 | 5.97950 | 39049 ft | 459 kts | 57° |
| 2026-04-29 11:16 | 43.05627 | 6.05328 | 39050 ft | 459 kts | 57° |
| 2026-04-29 11:17 | 43.09036 | 6.12717 | 39049 ft | 460 kts | 57° |
| 2026-04-29 11:17 | 43.12440 | 6.20119 | 39050 ft | 460 kts | 57° |
| 2026-04-29 11:18 | 43.15839 | 6.27530 | 39050 ft | 460 kts | 57° |
| 2026-04-29 11:18 | 43.18660 | 6.33705 | 39049 ft | 460 kts | 57° |
| 2026-04-29 11:19 | 43.22051 | 6.41133 | 39050 ft | 460 kts | 57° |
| 2026-04-29 11:19 | 43.25986 | 6.49784 | 39059 ft | 460 kts | 57° |
| 2026-04-29 11:20 | 43.28821 | 6.56029 | 39057 ft | 460 kts | 57° |
| 2026-04-29 11:20 | 43.32201 | 6.63479 | 39065 ft | 460 kts | 57° |
| 2026-04-29 11:21 | 43.35557 | 6.70904 | 39068 ft | 460 kts | 57° |
| 2026-04-29 11:21 | 43.38921 | 6.78377 | 39071 ft | 460 kts | 57° |
| 2026-04-29 11:22 | 43.42302 | 6.85908 | 39073 ft | 460 kts | 57° |
| 2026-04-29 11:22 | 43.45667 | 6.93398 | 39076 ft | 460 kts | 57° |
| 2026-04-29 11:23 | 43.49028 | 7.00904 | 39075 ft | 461 kts | 57° |
| 2026-04-29 11:23 | 43.52366 | 7.08388 | 39075 ft | 461 kts | 57° |
| 2026-04-29 11:24 | 43.55718 | 7.15921 | 39074 ft | 461 kts | 57° |
| 2026-04-29 11:24 | 43.59066 | 7.23465 | 39072 ft | 461 kts | 58° |
| 2026-04-29 11:25 | 43.62407 | 7.31023 | 39079 ft | 462 kts | 57° |
| 2026-04-29 11:25 | 43.65754 | 7.38607 | 39075 ft | 462 kts | 57° |
| 2026-04-29 11:26 | 43.70765 | 7.49978 | 39072 ft | 462 kts | 57° |
| 2026-04-29 11:26 | 43.74109 | 7.57590 | 39072 ft | 463 kts | 58° |
| 2026-04-29 11:27 | 43.77435 | 7.65207 | 39068 ft | 463 kts | 57° |
| 2026-04-29 11:27 | 43.80755 | 7.72841 | 39076 ft | 463 kts | 58° |
| 2026-04-29 11:28 | 43.83931 | 7.80623 | 39072 ft | 464 kts | 62° |
| 2026-04-29 11:28 | 43.86776 | 7.88650 | 39074 ft | 465 kts | 64° |
| 2026-04-29 11:29 | 43.89532 | 7.96747 | 39074 ft | 465 kts | 63° |
| 2026-04-29 11:29 | 43.92353 | 8.04807 | 39076 ft | 465 kts | 63° |
| 2026-04-29 11:30 | 43.95221 | 8.12839 | 39079 ft | 465 kts | 62° |
| 2026-04-29 11:30 | 43.98090 | 8.20896 | 39077 ft | 465 kts | 62° |
| 2026-04-29 11:31 | 44.00939 | 8.28961 | 39081 ft | 465 kts | 63° |
| 2026-04-29 11:31 | 44.03770 | 8.37046 | 39085 ft | 466 kts | 63° |
| 2026-04-29 11:32 | 44.06607 | 8.45155 | 39078 ft | 466 kts | 63° |
| 2026-04-29 11:32 | 44.09423 | 8.53205 | 39083 ft | 466 kts | 63° |
| 2026-04-29 11:33 | 44.12251 | 8.61323 | 39086 ft | 467 kts | 63° |
| 2026-04-29 11:33 | 44.15075 | 8.69454 | 39080 ft | 467 kts | 63° |
| 2026-04-29 11:34 | 44.17896 | 8.77614 | 39085 ft | 467 kts | 63° |
| 2026-04-29 11:34 | 44.20710 | 8.85775 | 39082 ft | 468 kts | 63° |
| 2026-04-29 11:35 | 44.23517 | 8.93949 | 39082 ft | 468 kts | 63° |
| 2026-04-29 11:35 | 44.26325 | 9.02132 | 39089 ft | 468 kts | 63° |
| 2026-04-29 11:36 | 44.29132 | 9.10327 | 39086 ft | 468 kts | 63° |
| 2026-04-29 11:36 | 44.31941 | 9.18554 | 39086 ft | 469 kts | 63° |
| 2026-04-29 11:37 | 44.34745 | 9.26780 | 39082 ft | 470 kts | 63° |
| 2026-04-29 11:37 | 44.37533 | 9.35028 | 39081 ft | 470 kts | 63° |
| 2026-04-29 11:38 | 44.40319 | 9.43288 | 39086 ft | 470 kts | 63° |
| 2026-04-29 11:38 | 44.43114 | 9.51567 | 39083 ft | 470 kts | 63° |
| 2026-04-29 11:39 | 44.45898 | 9.59843 | 39084 ft | 470 kts | 63° |
| 2026-04-29 11:39 | 44.48668 | 9.68136 | 39082 ft | 471 kts | 63° |
| 2026-04-29 11:40 | 44.51441 | 9.76438 | 39079 ft | 471 kts | 63° |
| 2026-04-29 11:40 | 44.54212 | 9.84765 | 39090 ft | 471 kts | 63° |
| 2026-04-29 11:41 | 44.56968 | 9.93093 | 39092 ft | 471 kts | 63° |
| 2026-04-29 11:41 | 44.59722 | 10.01435 | 39104 ft | 472 kts | 63° |
| 2026-04-29 11:42 | 44.62477 | 10.09793 | 39099 ft | 472 kts | 63° |
| 2026-04-29 11:42 | 44.65229 | 10.18160 | 39102 ft | 472 kts | 63° |
| 2026-04-29 11:43 | 44.67987 | 10.26551 | 39107 ft | 473 kts | 63° |
| 2026-04-29 11:43 | 44.70718 | 10.34956 | 39105 ft | 473 kts | 63° |
| 2026-04-29 11:44 | 44.73396 | 10.43412 | 39111 ft | 474 kts | 65° |
| 2026-04-29 11:44 | 44.75912 | 10.52008 | 39107 ft | 475 kts | 66° |
| 2026-04-29 11:45 | 44.78354 | 10.60577 | 39098 ft | 475 kts | 66° |
| 2026-04-29 11:45 | 44.80840 | 10.69196 | 39109 ft | 475 kts | 65° |
| 2026-04-29 11:46 | 44.83346 | 10.77811 | 39100 ft | 476 kts | 65° |
| 2026-04-29 11:46 | 44.85850 | 10.86438 | 39099 ft | 476 kts | 65° |
| 2026-04-29 11:47 | 44.88350 | 10.95095 | 39098 ft | 476 kts | 65° |
| 2026-04-29 11:47 | 44.90839 | 11.03751 | 39096 ft | 477 kts | 65° |
| 2026-04-29 11:48 | 44.93319 | 11.12419 | 39094 ft | 477 kts | 65° |
| 2026-04-29 11:48 | 44.95791 | 11.21098 | 39094 ft | 477 kts | 65° |
| 2026-04-29 11:49 | 44.98265 | 11.29799 | 39096 ft | 477 kts | 65° |
| 2026-04-29 11:49 | 45.00727 | 11.38494 | 39096 ft | 477 kts | 65° |
| 2026-04-29 11:50 | 45.03184 | 11.47200 | 39102 ft | 477 kts | 65° |
| 2026-04-29 11:50 | 45.05640 | 11.55915 | 39108 ft | 477 kts | 65° |
| 2026-04-29 11:51 | 45.08095 | 11.64638 | 39090 ft | 478 kts | 65° |
| 2026-04-29 11:51 | 45.10526 | 11.73332 | 39099 ft | 478 kts | 65° |
| 2026-04-29 11:52 | 45.12961 | 11.82082 | 39108 ft | 478 kts | 65° |
| 2026-04-29 11:52 | 45.15414 | 11.90913 | 39128 ft | 478 kts | 65° |
| 2026-04-29 11:53 | 45.17818 | 11.99620 | 39124 ft | 478 kts | 65° |
| 2026-04-29 11:53 | 45.20225 | 12.08394 | 39119 ft | 478 kts | 65° |
| 2026-04-29 11:54 | 45.22628 | 12.17176 | 39119 ft | 478 kts | 65° |
| 2026-04-29 11:54 | 45.25031 | 12.25962 | 39119 ft | 478 kts | 65° |
| 2026-04-29 11:55 | 45.27436 | 12.34768 | 39121 ft | 478 kts | 65° |
| 2026-04-29 11:55 | 45.29828 | 12.43570 | 39144 ft | 478 kts | 65° |
| 2026-04-29 11:56 | 45.31019 | 12.47982 | 38945 ft | 477 kts | 65° |
| 2026-04-29 11:56 | 45.32201 | 12.52372 | 38713 ft | 477 kts | 65° |
| 2026-04-29 11:56 | 45.33384 | 12.56775 | 38426 ft | 476 kts | 65° |
| 2026-04-29 11:56 | 45.34568 | 12.61179 | 38140 ft | 476 kts | 65° |
| 2026-04-29 11:57 | 45.35748 | 12.65568 | 37863 ft | 476 kts | 65° |
| 2026-04-29 11:57 | 45.36931 | 12.69973 | 37580 ft | 476 kts | 65° |
| 2026-04-29 11:57 | 45.38114 | 12.74388 | 36898 ft | 478 kts | 65° |
| 2026-04-29 11:57 | 45.39295 | 12.78806 | 36174 ft | 480 kts | 66° |
| 2026-04-29 11:58 | 45.40483 | 12.83261 | 35377 ft | 482 kts | 66° |
| 2026-04-29 11:58 | 45.41673 | 12.87737 | 34476 ft | 486 kts | 66° |
| 2026-04-29 11:58 | 45.42875 | 12.92270 | 33436 ft | 491 kts | 66° |
| 2026-04-29 11:58 | 45.44085 | 12.96837 | 32470 ft | 493 kts | 66° |
| 2026-04-29 11:59 | 45.45297 | 13.01417 | 31381 ft | 497 kts | 66° |
| 2026-04-29 11:59 | 45.46514 | 13.06027 | 30641 ft | 493 kts | 66° |
| 2026-04-29 11:59 | 45.47714 | 13.10581 | 29987 ft | 488 kts | 66° |
| 2026-04-29 11:59 | 45.48894 | 13.15083 | 29285 ft | 483 kts | 66° |
| 2026-04-29 12:00 | 45.50044 | 13.19483 | 28635 ft | 477 kts | 66° |
| 2026-04-29 12:00 | 45.51192 | 13.23880 | 27969 ft | 472 kts | 66° |
| 2026-04-29 12:00 | 45.52332 | 13.28250 | 27308 ft | 467 kts | 66° |
| 2026-04-29 12:00 | 45.53461 | 13.32579 | 26659 ft | 463 kts | 66° |
| 2026-04-29 12:01 | 45.54579 | 13.36860 | 26027 ft | 460 kts | 66° |
| 2026-04-29 12:01 | 45.55694 | 13.41130 | 25375 ft | 457 kts | 66° |
| 2026-04-29 12:01 | 45.56793 | 13.45357 | 24750 ft | 454 kts | 67° |
| 2026-04-29 12:01 | 45.57883 | 13.49565 | 24189 ft | 449 kts | 66° |
| 2026-04-29 12:02 | 45.59061 | 13.53668 | 23622 ft | 443 kts | 60° |
| 2026-04-29 12:02 | 45.60421 | 13.57570 | 23044 ft | 437 kts | 60° |
| 2026-04-29 12:02 | 45.61763 | 13.61438 | 22529 ft | 431 kts | 60° |
| 2026-04-29 12:02 | 45.63080 | 13.65249 | 22039 ft | 426 kts | 60° |
| 2026-04-29 12:03 | 45.64387 | 13.69036 | 21535 ft | 423 kts | 60° |
| 2026-04-29 12:03 | 45.65681 | 13.72795 | 21056 ft | 419 kts | 61° |
| 2026-04-29 12:03 | 45.66959 | 13.76516 | 20574 ft | 417 kts | 61° |
| 2026-04-29 12:03 | 45.68234 | 13.80229 | 20063 ft | 414 kts | 61° |
| 2026-04-29 12:04 | 45.69503 | 13.83921 | 19558 ft | 412 kts | 61° |
| 2026-04-29 12:04 | 45.70757 | 13.87581 | 19046 ft | 410 kts | 61° |
| 2026-04-29 12:04 | 45.72008 | 13.91246 | 18528 ft | 409 kts | 61° |
| 2026-04-29 12:04 | 45.73252 | 13.94901 | 17935 ft | 407 kts | 61° |
| 2026-04-29 12:05 | 45.74482 | 13.98519 | 17391 ft | 403 kts | 61° |
| 2026-04-29 12:05 | 45.75707 | 14.02120 | 16832 ft | 400 kts | 61° |
| 2026-04-29 12:05 | 45.76921 | 14.05689 | 16276 ft | 397 kts | 62° |
| 2026-04-29 12:05 | 45.78115 | 14.09204 | 15726 ft | 392 kts | 62° |
| 2026-04-29 12:06 | 45.79303 | 14.12699 | 15201 ft | 389 kts | 62° |
| 2026-04-29 12:06 | 45.80487 | 14.16175 | 14650 ft | 386 kts | 62° |
| 2026-04-29 12:06 | 45.81655 | 14.19620 | 14100 ft | 384 kts | 63° |
| 2026-04-29 12:06 | 45.82816 | 14.23062 | 13501 ft | 382 kts | 63° |
| 2026-04-29 12:07 | 45.83579 | 14.25328 | 13134 ft | 380 kts | 63° |
| 2026-04-29 12:07 | 45.85110 | 14.29870 | 12414 ft | 376 kts | 63° |
| 2026-04-29 12:07 | 45.85861 | 14.32095 | 12068 ft | 373 kts | 63° |
| 2026-04-29 12:07 | 45.86990 | 14.35439 | 11372 ft | 373 kts | 63° |
| 2026-04-29 12:08 | 45.88119 | 14.38789 | 10773 ft | 371 kts | 64° |
| 2026-04-29 12:08 | 45.89230 | 14.42095 | 10422 ft | 361 kts | 63° |
| 2026-04-29 12:08 | 45.90294 | 14.45269 | 10322 ft | 346 kts | 64° |
| 2026-04-29 12:08 | 45.91317 | 14.48327 | 10192 ft | 333 kts | 64° |
| 2026-04-29 12:09 | 45.92303 | 14.51277 | 10066 ft | 321 kts | 64° |
| 2026-04-29 12:09 | 45.93252 | 14.54119 | 9915 ft | 311 kts | 63° |
| 2026-04-29 12:09 | 45.94186 | 14.56927 | 9394 ft | 313 kts | 64° |
| 2026-04-29 12:09 | 45.95124 | 14.59742 | 8978 ft | 312 kts | 64° |
| 2026-04-29 12:10 | 45.96242 | 14.62395 | 8565 ft | 309 kts | 52° |
| 2026-04-29 12:10 | 45.97814 | 14.64540 | 7851 ft | 316 kts | 31° |
| 2026-04-29 12:10 | 45.99834 | 14.65696 | 7485 ft | 312 kts | 11° |
| 2026-04-29 12:10 | 46.01977 | 14.65768 | 7120 ft | 308 kts | 357° |
| 2026-04-29 12:11 | 46.04072 | 14.65506 | 6741 ft | 294 kts | 356° |
| 2026-04-29 12:11 | 46.06053 | 14.65245 | 6359 ft | 279 kts | 356° |
| 2026-04-29 12:11 | 46.07946 | 14.64992 | 5975 ft | 267 kts | 356° |
| 2026-04-29 12:11 | 46.09759 | 14.64748 | 5574 ft | 257 kts | 356° |
| 2026-04-29 12:12 | 46.11511 | 14.64502 | 5205 ft | 248 kts | 353° |
| 2026-04-29 12:12 | 46.13072 | 14.63605 | 4827 ft | 240 kts | 322° |
| 2026-04-29 12:12 | 46.14124 | 14.61861 | 4437 ft | 223 kts | 308° |
| 2026-04-29 12:12 | 46.15009 | 14.60114 | 4100 ft | 207 kts | 308° |
| 2026-04-29 12:13 | 46.15820 | 14.58522 | 3841 ft | 191 kts | 309° |
| 2026-04-29 12:13 | 46.16593 | 14.57048 | 3298 ft | 181 kts | 310° |
| 2026-04-29 12:13 | 46.17347 | 14.55629 | 2747 ft | 174 kts | 309° |
| 2026-04-29 12:13 | 46.18023 | 14.54293 | 2523 ft | 158 kts | 307° |
| 2026-04-29 12:14 | 46.18661 | 14.53035 | 2148 ft | 151 kts | 307° |
| 2026-04-29 12:14 | 46.19245 | 14.51808 | 1979 ft | 147 kts | 306° |
| 2026-04-29 12:14 | 46.19851 | 14.50643 | 1769 ft | 144 kts | 306° |
| 2026-04-29 12:14 | 46.20460 | 14.49482 | 1596 ft | 144 kts | 306° |
| 2026-04-29 12:15 | 46.21051 | 14.48327 | 1405 ft | 142 kts | 305° |
| 2026-04-29 12:15 | 46.21638 | 14.47193 | 1242 ft | 137 kts | 305° |
| 2026-04-29 12:15 | 46.22124 | 14.46238 | 1238 ft | 95 kts | 307° |
| 2026-04-29 12:15 | 46.22446 | 14.45619 | 1250 ft | 57 kts | 309° |
| 2026-04-29 12:16 | 46.22654 | 14.45374 | 1259 ft | 25 kts | 338° |
| 2026-04-29 12:16 | 46.22765 | 14.45324 | 1265 ft | 12 kts | 350° |
| 2026-04-29 12:16 | 46.22831 | 14.45312 | 1262 ft | 9 kts | 359° |
| 2026-04-29 12:16 | 46.22884 | 14.45354 | 1261 ft | 8 kts | 36° |
| 2026-04-29 12:17 | 46.22920 | 14.45392 | 1259 ft | 5 kts | 37° |
| 2026-04-29 12:17 | 46.22936 | 14.45444 | 1263 ft | 7 kts | 102° |
| 2026-04-29 12:17 | 46.22954 | 14.45486 | 1266 ft | 4 kts | 38° |
| 2026-04-29 12:17 | 46.22973 | 14.45507 | 1262 ft | 3 kts | 37° |
| 2026-04-29 12:18 | 46.22980 | 14.45515 | 1263 ft | 0 kts | 37° |